Zim Rio Grande — 9HNV9 — position and weather

sailwx.info

Track history (hours):
 
Tides and Currents Weather Stations Pressure Air Temp Water Temp Dewpoint Dewpoint Depression Visibility Wind Speed Wind Dir Waves Ship Positions

Zim Rio Grande

Last reported at 2017-Dec-07 14:29 UTC. Time now 2017-Dec-14 15:22 UTC.
Position N 32°53' E 034°25'.

Length 260 m; draft 12.6 m.

Type: Ship (hazmat cat A). MMSI: 249253000.

Date/timePositionNaut miles runAvg speedWind from/ knotsBaromVisibWave heightAir tempDewpointWater temp
2017-Dec-07 14:29N 32°53' E 034°25'1120.5
2017-Dec-07 13:57N 32°56' E 034°38'1021.2
2017-Dec-07 13:30N 32°54' E 034°49'1016.0
2017-Dec-07 12:51N 32°51' E 035°01'  
2017-Dec-01 06:38N 46°15' E 030°55'319.9
2017-Dec-01 06:30N 46°17' E 030°53'918.2
2017-Dec-01 06:00N 46°26' E 030°50'5 9.7
2017-Dec-01 05:31N 46°30' E 030°46'1 1.3
2017-Dec-01 04:59N 46°29' E 030°45'0 0.0
2017-Dec-01 04:23N 46°29' E 030°45'0 0.0
2017-Dec-01 03:55N 46°29' E 030°45'0 0.0
2017-Dec-01 03:28N 46°29' E 030°45'0 0.0
2017-Dec-01 02:55N 46°29' E 030°45'0 0.0
2017-Dec-01 02:30N 46°29' E 030°45'0 0.0
2017-Dec-01 02:00N 46°29' E 030°45'0 0.0
2017-Dec-01 01:30N 46°29' E 030°45'0 0.0
2017-Dec-01 01:01N 46°29' E 030°45'0 0.0
2017-Dec-01 00:31N 46°29' E 030°45'0 0.0
2017-Dec-01 00:00N 46°29' E 030°45'0 0.0
2017-Nov-30 23:31N 46°29' E 030°45'0 0.0
2017-Nov-30 23:01N 46°29' E 030°45'0 0.0
2017-Nov-30 22:28N 46°29' E 030°45'0 0.0
2017-Nov-30 21:55N 46°29' E 030°45'0 0.0
2017-Nov-30 21:25N 46°29' E 030°45'0 0.0
2017-Nov-30 20:58N 46°29' E 030°45'0 0.0
2017-Nov-30 20:29N 46°29' E 030°45'0 0.0
2017-Nov-30 19:53N 46°29' E 030°45'0 0.0
2017-Nov-30 19:31N 46°29' E 030°45'0 0.0
2017-Nov-30 19:00N 46°29' E 030°45'0 0.0
2017-Nov-30 18:31N 46°29' E 030°45'0 0.0
2017-Nov-30 18:00N 46°29' E 030°45'0 0.0
2017-Nov-30 17:30N 46°29' E 030°45'0 0.0
2017-Nov-30 17:00N 46°29' E 030°45'0 0.0
2017-Nov-30 16:30N 46°29' E 030°45'0 0.0
2017-Nov-30 16:01N 46°29' E 030°45'0 0.0
2017-Nov-30 15:30N 46°29' E 030°45'0 0.0
2017-Nov-30 15:00N 46°29' E 030°45'0 0.0
2017-Nov-30 14:30N 46°29' E 030°45'0 0.0
2017-Nov-30 14:01N 46°29' E 030°45'0 0.0
2017-Nov-30 13:31N 46°29' E 030°45'0 0.0
2017-Nov-30 13:01N 46°29' E 030°45'0 0.0
2017-Nov-30 12:31N 46°29' E 030°45'0 0.0
2017-Nov-30 12:01N 46°29' E 030°45'0 0.0
2017-Nov-30 11:11N 46°29' E 030°45'0 0.0
2017-Nov-30 10:51N 46°29' E 030°45'0 0.0
2017-Nov-30 10:07N 46°29' E 030°45'0 0.0
2017-Nov-30 09:52N 46°29' E 030°45'0 0.0
2017-Nov-30 09:16N 46°29' E 030°45'0 0.0
2017-Nov-30 09:01N 46°29' E 030°45'0 0.0
2017-Nov-30 08:30N 46°29' E 030°45'0 0.0
2017-Nov-30 08:01N 46°29' E 030°45'0 0.0
2017-Nov-30 07:31N 46°29' E 030°45'0 0.0
2017-Nov-30 07:01N 46°29' E 030°45'0 0.0
2017-Nov-30 06:31N 46°29' E 030°45'0 0.0
2017-Nov-30 05:58N 46°29' E 030°45'0 0.0
2017-Nov-30 05:29N 46°29' E 030°45'0 0.3
2017-Nov-30 05:01N 46°30' E 030°45'1 1.7
2017-Nov-30 04:31N 46°30' E 030°46'2 3.8
2017-Nov-30 04:00N 46°30' E 030°49'611.5
2017-Nov-30 03:30N 46°24' E 030°52'29415.0
2017-Nov-29 07:54N 44°22' E 037°13'716.9
2017-Nov-29 07:31N 44°26' E 037°21'917.4
2017-Nov-29 07:00N 44°30' E 037°32'918.2
2017-Nov-29 06:30N 44°34' E 037°44'714.6
2017-Nov-29 06:01N 44°39' E 037°51'4 8.5
2017-Nov-29 05:30N 44°43' E 037°48'1 1.9
2017-Nov-29 04:58N 44°44' E 037°47'0 0.0
2017-Nov-29 04:28N 44°44' E 037°47'0 0.0
2017-Nov-29 03:58N 44°44' E 037°47'0 0.0
2017-Nov-29 03:28N 44°44' E 037°47'0 0.0
2017-Nov-29 02:58N 44°44' E 037°47'0 0.0
2017-Nov-29 02:28N 44°44' E 037°47'0 0.0
2017-Nov-29 01:58N 44°44' E 037°47'0 0.0
2017-Nov-29 01:28N 44°44' E 037°47'0 0.0
2017-Nov-29 00:58N 44°44' E 037°47'0 0.0
2017-Nov-29 00:28N 44°44' E 037°47'0 0.0
2017-Nov-28 23:58N 44°44' E 037°47'0 0.0
2017-Nov-28 23:28N 44°44' E 037°47'0 0.0
2017-Nov-28 22:58N 44°44' E 037°47'0 0.0
2017-Nov-28 22:28N 44°44' E 037°47'0 0.0
2017-Nov-28 21:58N 44°44' E 037°47'0 0.0
2017-Nov-28 21:28N 44°44' E 037°47'0 0.0
2017-Nov-28 20:58N 44°44' E 037°47'0 0.0
2017-Nov-28 20:28N 44°44' E 037°47'0 0.0
2017-Nov-28 19:58N 44°44' E 037°47'0 0.0
2017-Nov-28 19:28N 44°44' E 037°47'0 0.0
2017-Nov-28 18:58N 44°44' E 037°47'0 0.0
2017-Nov-28 18:28N 44°44' E 037°47'0 0.0
2017-Nov-28 17:58N 44°44' E 037°47'0 0.0
2017-Nov-28 17:28N 44°44' E 037°47'0 0.0
2017-Nov-28 16:58N 44°44' E 037°47'0 0.0
2017-Nov-28 16:28N 44°44' E 037°47'0 0.0
2017-Nov-28 15:58N 44°44' E 037°47'0 0.0
2017-Nov-28 14:58N 44°44' E 037°47'0 0.0
2017-Nov-28 14:28N 44°44' E 037°47'0 0.0
2017-Nov-28 13:58N 44°44' E 037°47'0 0.0
2017-Nov-28 13:28N 44°44' E 037°47'0 0.0
2017-Nov-28 12:58N 44°44' E 037°47'0 0.0
2017-Nov-28 12:28N 44°44' E 037°47'0 0.0
2017-Nov-28 12:01N 44°44' E 037°47'0 0.0
2017-Nov-28 11:28N 44°44' E 037°47'0 0.0
2017-Nov-28 10:58N 44°44' E 037°47'0 0.0
2017-Nov-28 10:28N 44°44' E 037°47'0 0.0
2017-Nov-28 10:01N 44°44' E 037°47'0 0.0
2017-Nov-28 09:28N 44°44' E 037°47'0 0.0
2017-Nov-28 09:01N 44°44' E 037°47'0 0.0
2017-Nov-28 08:28N 44°44' E 037°47'0 0.0
2017-Nov-28 07:58N 44°44' E 037°47'0 0.0
2017-Nov-28 07:31N 44°44' E 037°47'0 0.0
2017-Nov-28 06:58N 44°44' E 037°47'0 0.0
2017-Nov-28 06:31N 44°44' E 037°47'0 0.0
2017-Nov-28 05:58N 44°44' E 037°47'0 0.0
2017-Nov-28 05:28N 44°44' E 037°47'0 0.0
2017-Nov-28 04:30N 44°44' E 037°47'0 0.0
2017-Nov-28 04:01N 44°44' E 037°47'0 0.0
2017-Nov-28 03:27N 44°44' E 037°47'0 0.0
2017-Nov-28 02:58N 44°44' E 037°47'0 0.0
2017-Nov-28 02:28N 44°44' E 037°47'0 0.0
2017-Nov-28 02:00N 44°44' E 037°47'0 0.0
2017-Nov-28 01:31N 44°44' E 037°47'0 0.0
2017-Nov-28 00:58N 44°44' E 037°47'0 0.0
2017-Nov-28 00:28N 44°44' E 037°47'0 0.0
2017-Nov-28 00:00N 44°44' E 037°47'0 0.0
2017-Nov-27 23:28N 44°44' E 037°47'0 0.0
2017-Nov-27 22:58N 44°44' E 037°47'0 0.0
2017-Nov-27 22:31N 44°44' E 037°47'0 0.0
2017-Nov-27 21:58N 44°44' E 037°47'0 0.0
2017-Nov-27 21:31N 44°44' E 037°47'0 0.0
2017-Nov-27 21:00N 44°44' E 037°47'0 0.0
2017-Nov-27 20:31N 44°44' E 037°47'0 0.0
2017-Nov-27 20:00N 44°44' E 037°47'0 0.0
2017-Nov-27 19:28N 44°44' E 037°47'0 0.0
2017-Nov-27 19:00N 44°44' E 037°47'0 0.0
2017-Nov-27 18:31N 44°44' E 037°47'0 0.0
2017-Nov-27 17:57N 44°44' E 037°47'0 0.0
2017-Nov-27 17:28N 44°44' E 037°47'0 0.0
2017-Nov-27 16:58N 44°44' E 037°47'0 0.0
2017-Nov-27 16:27N 44°44' E 037°47'0 0.0
2017-Nov-27 16:00N 44°44' E 037°47'0 0.0
2017-Nov-27 15:27N 44°44' E 037°47'0 0.0
2017-Nov-27 14:58N 44°44' E 037°47'  
Track history (hours):
 
Tides and Currents Weather Stations Pressure Air Temp Water Temp Dewpoint Dewpoint Depression Visibility Wind Speed Wind Dir Waves Ship Positions

Zim Rio Grande

Last reported at 2017-Dec-07 14:29 UTC. Time now 2017-Dec-14 15:22 UTC.
Position N 32°53' E 034°25'.

Length 260 m; draft 12.6 m.

Type: Ship (hazmat cat A). MMSI: 249253000.

Date/timePositionNaut miles runAvg speedWind from/ knotsBaromVisibWave heightAir tempDewpointWater temp
2017-Dec-07 14:29N 32°53' E 034°25'1120.5
2017-Dec-07 13:57N 32°56' E 034°38'1021.2
2017-Dec-07 13:30N 32°54' E 034°49'1016.0
2017-Dec-07 12:51N 32°51' E 035°01'  
2017-Dec-01 06:38N 46°15' E 030°55'319.9
2017-Dec-01 06:30N 46°17' E 030°53'918.2
2017-Dec-01 06:00N 46°26' E 030°50'5 9.7
2017-Dec-01 05:31N 46°30' E 030°46'1 1.3
2017-Dec-01 04:59N 46°29' E 030°45'0 0.0
2017-Dec-01 04:23N 46°29' E 030°45'0 0.0
2017-Dec-01 03:55N 46°29' E 030°45'0 0.0
2017-Dec-01 03:28N 46°29' E 030°45'0 0.0
2017-Dec-01 02:55N 46°29' E 030°45'0 0.0
2017-Dec-01 02:30N 46°29' E 030°45'0 0.0
2017-Dec-01 02:00N 46°29' E 030°45'0 0.0
2017-Dec-01 01:30N 46°29' E 030°45'0 0.0
2017-Dec-01 01:01N 46°29' E 030°45'0 0.0
2017-Dec-01 00:31N 46°29' E 030°45'0 0.0
2017-Dec-01 00:00N 46°29' E 030°45'0 0.0
2017-Nov-30 23:31N 46°29' E 030°45'0 0.0
2017-Nov-30 23:01N 46°29' E 030°45'0 0.0
2017-Nov-30 22:28N 46°29' E 030°45'0 0.0
2017-Nov-30 21:55N 46°29' E 030°45'0 0.0
2017-Nov-30 21:25N 46°29' E 030°45'0 0.0
2017-Nov-30 20:58N 46°29' E 030°45'0 0.0
2017-Nov-30 20:29N 46°29' E 030°45'0 0.0
2017-Nov-30 19:53N 46°29' E 030°45'0 0.0
2017-Nov-30 19:31N 46°29' E 030°45'0 0.0
2017-Nov-30 19:00N 46°29' E 030°45'0 0.0
2017-Nov-30 18:31N 46°29' E 030°45'0 0.0
2017-Nov-30 18:00N 46°29' E 030°45'0 0.0
2017-Nov-30 17:30N 46°29' E 030°45'0 0.0
2017-Nov-30 17:00N 46°29' E 030°45'0 0.0
2017-Nov-30 16:30N 46°29' E 030°45'0 0.0
2017-Nov-30 16:01N 46°29' E 030°45'0 0.0
2017-Nov-30 15:30N 46°29' E 030°45'0 0.0
2017-Nov-30 15:00N 46°29' E 030°45'0 0.0
2017-Nov-30 14:30N 46°29' E 030°45'0 0.0
2017-Nov-30 14:01N 46°29' E 030°45'0 0.0
2017-Nov-30 13:31N 46°29' E 030°45'0 0.0
2017-Nov-30 13:01N 46°29' E 030°45'0 0.0
2017-Nov-30 12:31N 46°29' E 030°45'0 0.0
2017-Nov-30 12:01N 46°29' E 030°45'0 0.0
2017-Nov-30 11:11N 46°29' E 030°45'0 0.0
2017-Nov-30 10:51N 46°29' E 030°45'0 0.0
2017-Nov-30 10:07N 46°29' E 030°45'0 0.0
2017-Nov-30 09:52N 46°29' E 030°45'0 0.0
2017-Nov-30 09:16N 46°29' E 030°45'0 0.0
2017-Nov-30 09:01N 46°29' E 030°45'0 0.0
2017-Nov-30 08:30N 46°29' E 030°45'0 0.0
2017-Nov-30 08:01N 46°29' E 030°45'0 0.0
2017-Nov-30 07:31N 46°29' E 030°45'0 0.0
2017-Nov-30 07:01N 46°29' E 030°45'0 0.0
2017-Nov-30 06:31N 46°29' E 030°45'0 0.0
2017-Nov-30 05:58N 46°29' E 030°45'0 0.0
2017-Nov-30 05:29N 46°29' E 030°45'0 0.3
2017-Nov-30 05:01N 46°30' E 030°45'1 1.7
2017-Nov-30 04:31N 46°30' E 030°46'2 3.8
2017-Nov-30 04:00N 46°30' E 030°49'611.5
2017-Nov-30 03:30N 46°24' E 030°52'29415.0
2017-Nov-29 07:54N 44°22' E 037°13'716.9
2017-Nov-29 07:31N 44°26' E 037°21'917.4
2017-Nov-29 07:00N 44°30' E 037°32'918.2
2017-Nov-29 06:30N 44°34' E 037°44'714.6
2017-Nov-29 06:01N 44°39' E 037°51'4 8.5
2017-Nov-29 05:30N 44°43' E 037°48'1 1.9
2017-Nov-29 04:58N 44°44' E 037°47'0 0.0
2017-Nov-29 04:28N 44°44' E 037°47'0 0.0
2017-Nov-29 03:58N 44°44' E 037°47'0 0.0
2017-Nov-29 03:28N 44°44' E 037°47'0 0.0
2017-Nov-29 02:58N 44°44' E 037°47'0 0.0
2017-Nov-29 02:28N 44°44' E 037°47'0 0.0
2017-Nov-29 01:58N 44°44' E 037°47'0 0.0
2017-Nov-29 01:28N 44°44' E 037°47'0 0.0
2017-Nov-29 00:58N 44°44' E 037°47'0 0.0
2017-Nov-29 00:28N 44°44' E 037°47'0 0.0
2017-Nov-28 23:58N 44°44' E 037°47'0 0.0
2017-Nov-28 23:28N 44°44' E 037°47'0 0.0
2017-Nov-28 22:58N 44°44' E 037°47'0 0.0
2017-Nov-28 22:28N 44°44' E 037°47'0 0.0
2017-Nov-28 21:58N 44°44' E 037°47'0 0.0
2017-Nov-28 21:28N 44°44' E 037°47'0 0.0
2017-Nov-28 20:58N 44°44' E 037°47'0 0.0
2017-Nov-28 20:28N 44°44' E 037°47'0 0.0
2017-Nov-28 19:58N 44°44' E 037°47'0 0.0
2017-Nov-28 19:28N 44°44' E 037°47'0 0.0
2017-Nov-28 18:58N 44°44' E 037°47'0 0.0
2017-Nov-28 18:28N 44°44' E 037°47'0 0.0
2017-Nov-28 17:58N 44°44' E 037°47'0 0.0
2017-Nov-28 17:28N 44°44' E 037°47'0 0.0
2017-Nov-28 16:58N 44°44' E 037°47'0 0.0
2017-Nov-28 16:28N 44°44' E 037°47'0 0.0
2017-Nov-28 15:58N 44°44' E 037°47'0 0.0
2017-Nov-28 14:58N 44°44' E 037°47'0 0.0
2017-Nov-28 14:28N 44°44' E 037°47'0 0.0
2017-Nov-28 13:58N 44°44' E 037°47'0 0.0
2017-Nov-28 13:28N 44°44' E 037°47'0 0.0
2017-Nov-28 12:58N 44°44' E 037°47'0 0.0
2017-Nov-28 12:28N 44°44' E 037°47'0 0.0
2017-Nov-28 12:01N 44°44' E 037°47'0 0.0
2017-Nov-28 11:28N 44°44' E 037°47'0 0.0
2017-Nov-28 10:58N 44°44' E 037°47'0 0.0
2017-Nov-28 10:28N 44°44' E 037°47'0 0.0
2017-Nov-28 10:01N 44°44' E 037°47'0 0.0
2017-Nov-28 09:28N 44°44' E 037°47'0 0.0
2017-Nov-28 09:01N 44°44' E 037°47'0 0.0
2017-Nov-28 08:28N 44°44' E 037°47'0 0.0
2017-Nov-28 07:58N 44°44' E 037°47'0 0.0
2017-Nov-28 07:31N 44°44' E 037°47'0 0.0
2017-Nov-28 06:58N 44°44' E 037°47'0 0.0
2017-Nov-28 06:31N 44°44' E 037°47'0 0.0
2017-Nov-28 05:58N 44°44' E 037°47'0 0.0
2017-Nov-28 05:28N 44°44' E 037°47'0 0.0
2017-Nov-28 04:30N 44°44' E 037°47'0 0.0
2017-Nov-28 04:01N 44°44' E 037°47'0 0.0
2017-Nov-28 03:27N 44°44' E 037°47'0 0.0
2017-Nov-28 02:58N 44°44' E 037°47'0 0.0
2017-Nov-28 02:28N 44°44' E 037°47'0 0.0
2017-Nov-28 02:00N 44°44' E 037°47'0 0.0
2017-Nov-28 01:31N 44°44' E 037°47'0 0.0
2017-Nov-28 00:58N 44°44' E 037°47'0 0.0
2017-Nov-28 00:28N 44°44' E 037°47'0 0.0
2017-Nov-28 00:00N 44°44' E 037°47'0 0.0
2017-Nov-27 23:28N 44°44' E 037°47'0 0.0
2017-Nov-27 22:58N 44°44' E 037°47'0 0.0
2017-Nov-27 22:31N 44°44' E 037°47'0 0.0
2017-Nov-27 21:58N 44°44' E 037°47'0 0.0
2017-Nov-27 21:31N 44°44' E 037°47'0 0.0
2017-Nov-27 21:00N 44°44' E 037°47'0 0.0
2017-Nov-27 20:31N 44°44' E 037°47'0 0.0
2017-Nov-27 20:00N 44°44' E 037°47'0 0.0
2017-Nov-27 19:28N 44°44' E 037°47'0 0.0
2017-Nov-27 19:00N 44°44' E 037°47'0 0.0
2017-Nov-27 18:31N 44°44' E 037°47'0 0.0
2017-Nov-27 17:57N 44°44' E 037°47'0 0.0
2017-Nov-27 17:28N 44°44' E 037°47'0 0.0
2017-Nov-27 16:58N 44°44' E 037°47'0 0.0
2017-Nov-27 16:27N 44°44' E 037°47'0 0.0
2017-Nov-27 16:00N 44°44' E 037°47'0 0.0
2017-Nov-27 15:27N 44°44' E 037°47'0 0.0
2017-Nov-27 14:58N 44°44' E 037°47'  

Dump ship's entire track history